Fishtail, Montana
Current Conditions -  °F | °C
As of 11:53 PM on Sunday 23 Nov 2014 (Local Time) from KLVM Reporting Station
Overcast Overcast  
Wind Chill: 25°   Ceiling: 7000
Heat Index: 36°   Visibility: 10mi
Dew Point: 20°   Wind: 22mph
Humidity: 52%   Direction: 250°WSW
Pressure: 29.85"   Gusts: 29mph
Location:  45.45°N, 109.51°W
Report Text: KLVM 240653Z AUTO 25019G25KT 10SM FEW060 BKN070 OVC090 02/M07 A2985 RMK AO2 PK WND 25029/0627 UPB39E41SNE39B41E42 SLP121 P0000 T00221067 400501011
Loading
Personal Weather Stations






























Interactive Weather Map New forecast layout! Learn more

10-Day Weather Forecast

Advertisements
Track Severe Weather on mobile